Time;durP1;ratioP1;P1;durP2;ratioP2;P2;SDS_P1;SDS_P2;PMS_P1;PMS_P2;Temp;Humidity;BMP_temperature;BMP_pressure;BME280_temperature;BME280_humidity;BME280_pressure;Samples;Min_cycle;Max_cycle;Signal;HPM_P1;HPM_P2
2023/12/30 00:00:13;;;;;;;2.45;0.70;;;;;;;;;;5086318;28;20028;-65
2023/12/30 00:02:38;;;;;;;3.10;0.70;;;;;;;;;;5074306;28;20017;-64
2023/12/30 00:05:03;;;;;;;2.03;0.63;;;;;;;;;;5073831;28;20013;-64
2023/12/30 00:07:29;;;;;;;2.03;0.70;;;;;;;;;;5073525;28;20020;-65
2023/12/30 00:09:54;;;;;;;2.80;0.70;;;;;;;;;;5058547;28;20547;-63
2023/12/30 00:12:19;;;;;;;2.47;0.60;;;;;;;;;;5053569;28;20094;-64
2023/12/30 00:14:44;;;;;;;1.17;0.38;;;;;;;;;;5069497;28;20511;-64
2023/12/30 00:17:09;;;;;;;2.95;0.63;;;;;;;;;;5072794;28;20031;-64
2023/12/30 00:19:36;;;;;;;2.25;0.60;;;;;;;;;;5065587;28;20060;-65
2023/12/30 00:22:01;;;;;;;2.88;0.52;;;;;;;;;;5071788;28;20051;-64
2023/12/30 00:24:26;;;;;;;2.43;0.90;;;;;;;;;;5070263;28;20024;-65
2023/12/30 00:26:51;;;;;;;2.53;0.65;;;;;;;;;;5071495;28;20032;-64
2023/12/30 00:29:16;;;;;;;2.53;0.60;;;;;;;;;;5064449;28;20037;-63
2023/12/30 00:31:41;;;;;;;1.73;0.60;;;;;;;;;;5072085;28;20504;-63
2023/12/30 00:34:07;;;;;;;1.37;0.40;;;;;;;;;;5072027;28;20026;-63
2023/12/30 00:36:32;;;;;;;1.33;0.55;;;;;;;;;;5072313;28;20075;-63
2023/12/30 00:38:57;;;;;;;3.65;0.65;;;;;;;;;;5074467;28;20381;-66
2023/12/30 00:41:22;;;;;;;2.08;0.55;;;;;;;;;;5069774;28;20056;-63
2023/12/30 00:43:48;;;;;;;1.17;0.40;;;;;;;;;;5058297;28;20033;-63
2023/12/30 00:46:13;;;;;;;3.75;0.57;;;;;;;;;;5052121;28;20028;-63
2023/12/30 00:48:38;;;;;;;2.07;0.60;;;;;;;;;;5052058;28;20552;-63
2023/12/30 00:51:03;;;;;;;2.00;0.47;;;;;;;;;;5066861;28;20468;-64
2023/12/30 00:53:29;;;;;;;1.53;0.50;;;;;;;;;;5070442;28;20027;-63
2023/12/30 00:55:54;;;;;;;2.80;0.50;;;;;;;;;;5065208;28;20362;-64
2023/12/30 00:58:20;;;;;;;1.47;0.50;;;;;;;;;;5072297;28;20020;-64
2023/12/30 01:00:45;;;;;;;1.35;0.47;;;;;;;;;;5070720;28;20373;-64
2023/12/30 01:03:10;;;;;;;2.60;0.70;;;;;;;;;;5071602;28;20031;-64
2023/12/30 01:05:35;;;;;;;1.43;0.50;;;;;;;;;;5072442;28;20032;-64
2023/12/30 01:08:00;;;;;;;1.58;0.40;;;;;;;;;;5072575;28;20477;-64
2023/12/30 01:10:25;;;;;;;1.50;0.68;;;;;;;;;;5070326;28;20055;-64
2023/12/30 01:12:51;;;;;;;2.42;0.60;;;;;;;;;;5066064;28;20037;-64
2023/12/30 01:15:16;;;;;;;1.30;0.50;;;;;;;;;;5051701;28;20539;-63
2023/12/30 01:17:41;;;;;;;1.57;0.60;;;;;;;;;;5051813;28;20033;-64
2023/12/30 01:20:07;;;;;;;1.77;0.40;;;;;;;;;;5058380;28;20484;-64
2023/12/30 01:22:32;;;;;;;1.08;0.40;;;;;;;;;;5075357;28;20028;-64
2023/12/30 01:24:57;;;;;;;3.20;0.50;;;;;;;;;;5071812;28;20021;-64
2023/12/30 01:27:22;;;;;;;1.70;0.47;;;;;;;;;;5072121;28;20059;-65
2023/12/30 01:29:47;;;;;;;1.42;0.40;;;;;;;;;;5070327;28;20029;-64
2023/12/30 01:32:13;;;;;;;1.48;0.50;;;;;;;;;;5070923;28;20066;-64
2023/12/30 01:34:38;;;;;;;5.13;0.50;;;;;;;;;;5067000;28;20033;-64
2023/12/30 01:37:03;;;;;;;3.17;0.50;;;;;;;;;;5071778;28;20446;-64
2023/12/30 01:39:28;;;;;;;2.00;0.50;;;;;;;;;;5070434;28;20052;-64
2023/12/30 01:41:53;;;;;;;1.88;0.50;;;;;;;;;;5070769;28;20017;-64
2023/12/30 01:44:18;;;;;;;2.38;0.60;;;;;;;;;;5087285;28;20065;-64
2023/12/30 01:46:44;;;;;;;1.40;0.50;;;;;;;;;;5091627;28;20025;-64
2023/12/30 01:49:10;;;;;;;2.03;0.50;;;;;;;;;;5057158;28;20052;-64
2023/12/30 01:51:35;;;;;;;2.55;0.70;;;;;;;;;;5062621;28;20842;-64
2023/12/30 01:54:01;;;;;;;0.97;0.40;;;;;;;;;;5059763;28;20473;-64
2023/12/30 01:56:27;;;;;;;1.98;0.50;;;;;;;;;;5051728;28;20078;-63
2023/12/30 01:58:52;;;;;;;2.70;0.60;;;;;;;;;;5052598;28;20067;-66
2023/12/30 02:01:18;;;;;;;2.55;0.55;;;;;;;;;;5061951;28;20024;-65
2023/12/30 02:03:44;;;;;;;1.95;0.57;;;;;;;;;;5076094;28;20189;-65
2023/12/30 02:06:09;;;;;;;1.67;0.50;;;;;;;;;;5071415;28;20017;-63
2023/12/30 02:08:34;;;;;;;1.30;0.57;;;;;;;;;;5067065;28;20025;-63
2023/12/30 02:11:00;;;;;;;3.73;0.60;;;;;;;;;;5060438;28;20037;-64
2023/12/30 02:13:25;;;;;;;1.83;0.50;;;;;;;;;;5073918;28;20032;-63
2023/12/30 02:15:50;;;;;;;2.60;0.40;;;;;;;;;;5090856;28;20027;-64
2023/12/30 02:18:15;;;;;;;2.22;0.40;;;;;;;;;;5091344;28;20044;-64
2023/12/30 02:20:40;;;;;;;1.33;0.20;;;;;;;;;;5077393;28;20441;-64
2023/12/30 02:23:05;;;;;;;1.40;0.30;;;;;;;;;;5070255;28;20032;-64
2023/12/30 02:25:32;;;;;;;6.43;0.30;;;;;;;;;;5070868;28;20027;-64
2023/12/30 02:27:57;;;;;;;1.30;0.30;;;;;;;;;;5070737;28;20110;-63
2023/12/30 02:30:24;;;;;;;0.70;0.25;;;;;;;;;;5069430;28;20032;-62
2023/12/30 02:32:49;;;;;;;1.60;0.30;;;;;;;;;;5070573;28;20500;-62
2023/12/30 02:35:14;;;;;;;3.47;0.40;;;;;;;;;;5090727;28;20023;-65
2023/12/30 02:37:39;;;;;;;1.23;0.25;;;;;;;;;;5086803;28;20427;-64
2023/12/30 02:40:04;;;;;;;2.23;0.30;;;;;;;;;;5073537;28;20015;-64
2023/12/30 02:42:30;;;;;;;1.25;0.40;;;;;;;;;;5072432;28;20021;-65
2023/12/30 02:44:55;;;;;;;0.52;0.20;;;;;;;;;;5070241;28;20025;-65
2023/12/30 02:47:20;;;;;;;0.88;0.20;;;;;;;;;;5070374;28;20051;-65
2023/12/30 02:49:45;;;;;;;1.17;0.30;;;;;;;;;;5066231;28;20180;-64
2023/12/30 02:52:11;;;;;;;1.67;0.50;;;;;;;;;;5066259;28;20424;-64
2023/12/30 02:54:36;;;;;;;2.40;0.50;;;;;;;;;;5072847;28;20396;-65
2023/12/30 02:57:02;;;;;;;2.13;0.40;;;;;;;;;;5090619;28;20016;-64
2023/12/30 02:59:28;;;;;;;1.40;0.40;;;;;;;;;;5068943;28;20012;-63
2023/12/30 03:01:53;;;;;;;3.10;0.43;;;;;;;;;;5072387;28;20024;-65
2023/12/30 03:04:18;;;;;;;2.33;0.50;;;;;;;;;;5074210;28;20112;-65
2023/12/30 03:06:43;;;;;;;0.75;0.30;;;;;;;;;;5073037;28;20082;-64
2023/12/30 03:09:08;;;;;;;1.80;0.60;;;;;;;;;;5073399;28;20391;-65
2023/12/30 03:11:33;;;;;;;3.25;0.60;;;;;;;;;;5070632;28;20086;-64
2023/12/30 03:13:59;;;;;;;2.10;0.60;;;;;;;;;;5083921;28;20016;-65
2023/12/30 03:16:25;;;;;;;1.17;0.40;;;;;;;;;;5094717;28;20023;-64
2023/12/30 03:18:50;;;;;;;1.80;0.50;;;;;;;;;;5076106;28;20029;-64
2023/12/30 03:21:16;;;;;;;1.83;0.50;;;;;;;;;;5073953;28;20029;-65
2023/12/30 03:23:41;;;;;;;2.55;0.60;;;;;;;;;;5065045;28;20037;-65
2023/12/30 03:26:10;;;;;;;1.63;0.60;;;;;;;;;;5053104;28;20358;-64
2023/12/30 03:28:36;;;;;;;2.00;0.50;;;;;;;;;;5073989;28;20472;-65
2023/12/30 03:31:01;;;;;;;2.20;0.65;;;;;;;;;;5073160;28;20031;-65
2023/12/30 03:33:27;;;;;;;1.60;0.50;;;;;;;;;;5062395;28;20037;-65
2023/12/30 03:35:52;;;;;;;1.48;0.43;;;;;;;;;;5053863;28;20120;-64
2023/12/30 03:38:17;;;;;;;2.60;0.50;;;;;;;;;;5060859;28;20484;-64
2023/12/30 03:40:43;;;;;;;4.03;0.77;;;;;;;;;;5073323;28;20082;-64
2023/12/30 03:43:08;;;;;;;2.27;0.70;;;;;;;;;;5073201;28;20060;-64
2023/12/30 03:45:33;;;;;;;2.65;0.50;;;;;;;;;;5073514;28;20028;-64
2023/12/30 03:47:58;;;;;;;1.65;0.60;;;;;;;;;;5068531;28;20016;-64
2023/12/30 03:50:23;;;;;;;2.97;0.70;;;;;;;;;;5071414;28;20089;-64
2023/12/30 03:52:49;;;;;;;1.70;0.50;;;;;;;;;;5073315;28;20035;-65
2023/12/30 03:55:14;;;;;;;2.03;0.50;;;;;;;;;;5073344;28;20032;-63
2023/12/30 03:57:39;;;;;;;2.97;0.57;;;;;;;;;;5070683;28;20091;-64
2023/12/30 04:00:05;;;;;;;1.70;0.50;;;;;;;;;;5064515;28;21539;-64
2023/12/30 04:02:30;;;;;;;2.47;0.63;;;;;;;;;;5074005;28;20024;-65
2023/12/30 04:04:55;;;;;;;1.63;0.60;;;;;;;;;;5067285;28;20369;-64
2023/12/30 04:07:20;;;;;;;2.30;0.60;;;;;;;;;;5073246;28;20413;-64
2023/12/30 04:09:45;;;;;;;2.58;0.80;;;;;;;;;;5078317;28;20369;-64
2023/12/30 04:12:10;;;;;;;2.80;0.70;;;;;;;;;;5075633;28;20135;-65
2023/12/30 04:14:36;;;;;;;2.77;0.60;;;;;;;;;;5072933;28;20043;-65
2023/12/30 04:17:01;;;;;;;1.40;0.47;;;;;;;;;;5073164;28;20059;-64
2023/12/30 04:19:26;;;;;;;2.00;0.60;;;;;;;;;;5053429;28;20040;-65
2023/12/30 04:21:51;;;;;;;1.83;0.52;;;;;;;;;;5064244;28;20040;-65
2023/12/30 04:24:21;;;;;;;2.15;0.52;;;;;;;;;;5072445;28;20492;-64
2023/12/30 04:26:46;;;;;;;2.75;0.50;;;;;;;;;;5067801;28;20472;-65
2023/12/30 04:29:11;;;;;;;1.80;0.50;;;;;;;;;;5061040;28;20427;-65
2023/12/30 04:31:37;;;;;;;2.05;0.55;;;;;;;;;;5068583;28;20028;-65
2023/12/30 04:34:02;;;;;;;4.43;0.60;;;;;;;;;;5072793;28;20468;-65
2023/12/30 04:36:27;;;;;;;1.75;0.50;;;;;;;;;;5066735;28;20031;-66
2023/12/30 04:38:52;;;;;;;2.80;0.50;;;;;;;;;;5073094;28;20048;-65
2023/12/30 04:41:18;;;;;;;2.40;0.50;;;;;;;;;;5071048;28;20063;-65
2023/12/30 04:43:43;;;;;;;2.50;1.13;;;;;;;;;;5072488;28;20457;-65
2023/12/30 04:46:08;;;;;;;3.80;0.60;;;;;;;;;;5072946;28;20028;-65
2023/12/30 04:48:34;;;;;;;1.75;0.60;;;;;;;;;;5072797;28;20515;-65
2023/12/30 04:50:59;;;;;;;3.00;0.63;;;;;;;;;;5071249;28;20038;-64
2023/12/30 04:53:25;;;;;;;2.23;0.60;;;;;;;;;;5072390;28;20032;-65
2023/12/30 04:55:50;;;;;;;3.45;0.57;;;;;;;;;;5073191;28;20430;-65
2023/12/30 04:58:16;;;;;;;2.10;0.60;;;;;;;;;;5086238;28;20236;-64
2023/12/30 05:00:41;;;;;;;3.50;0.70;;;;;;;;;;5086827;28;20032;-65
2023/12/30 05:03:06;;;;;;;1.75;0.50;;;;;;;;;;5070758;28;20021;-65
2023/12/30 05:05:31;;;;;;;2.15;0.45;;;;;;;;;;5072485;28;20132;-65
2023/12/30 05:07:56;;;;;;;1.38;0.47;;;;;;;;;;5072066;28;20032;-65
2023/12/30 05:10:21;;;;;;;1.90;0.40;;;;;;;;;;5068799;28;20033;-64
2023/12/30 05:12:47;;;;;;;2.55;0.50;;;;;;;;;;5072339;28;20412;-64
2023/12/30 05:15:13;;;;;;;0.70;0.30;;;;;;;;;;5073101;28;20431;-64
2023/12/30 05:17:38;;;;;;;2.35;0.47;;;;;;;;;;5072620;28;20027;-66
2023/12/30 05:20:06;;;;;;;1.88;0.50;;;;;;;;;;5070418;28;20388;-65
2023/12/30 05:22:31;;;;;;;4.43;0.40;;;;;;;;;;5071512;28;20032;-65
2023/12/30 05:24:56;;;;;;;1.48;0.40;;;;;;;;;;5071669;28;20040;-66
2023/12/30 05:27:21;;;;;;;4.68;0.50;;;;;;;;;;5071874;28;20039;-65
2023/12/30 05:29:47;;;;;;;0.80;0.30;;;;;;;;;;5054599;28;20389;-65
2023/12/30 05:32:12;;;;;;;4.53;0.40;;;;;;;;;;5069728;28;20032;-65
2023/12/30 05:34:37;;;;;;;1.63;0.40;;;;;;;;;;5073109;28;20020;-66
2023/12/30 05:37:02;;;;;;;2.50;0.50;;;;;;;;;;5092996;28;20031;-64
2023/12/30 05:39:27;;;;;;;2.60;0.43;;;;;;;;;;5093423;28;20479;-65
2023/12/30 05:41:52;;;;;;;1.73;0.40;;;;;;;;;;5066352;28;20100;-64
2023/12/30 05:44:17;;;;;;;1.33;0.40;;;;;;;;;;5072851;28;20024;-65
2023/12/30 05:46:43;;;;;;;2.17;0.40;;;;;;;;;;5071499;28;20028;-65
2023/12/30 05:49:08;;;;;;;2.63;0.40;;;;;;;;;;5071409;28;20427;-65
2023/12/30 05:51:33;;;;;;;2.03;0.30;;;;;;;;;;5068679;28;20039;-65
2023/12/30 05:53:58;;;;;;;2.40;0.28;;;;;;;;;;5065648;28;20074;-66
2023/12/30 05:56:24;;;;;;;5.38;1.60;;;;;;;;;;5071240;28;20358;-65
2023/12/30 05:58:49;;;;;;;1.17;0.30;;;;;;;;;;5086027;28;20024;-66
2023/12/30 06:01:14;;;;;;;2.60;0.30;;;;;;;;;;5069711;28;20059;-64
2023/12/30 06:03:40;;;;;;;1.57;0.20;;;;;;;;;;5070495;28;20024;-64
2023/12/30 06:06:05;;;;;;;2.22;0.30;;;;;;;;;;5070167;28;20036;-65
2023/12/30 06:08:31;;;;;;;1.47;0.40;;;;;;;;;;5067746;28;20024;-66
2023/12/30 06:10:56;;;;;;;0.95;0.22;;;;;;;;;;5070427;28;20073;-65
2023/12/30 06:13:21;;;;;;;9.25;0.75;;;;;;;;;;5070841;28;20028;-65
2023/12/30 06:15:48;;;;;;;2.20;0.30;;;;;;;;;;5071064;28;20021;-65
2023/12/30 06:18:13;;;;;;;0.70;0.30;;;;;;;;;;5061918;28;20502;-65
2023/12/30 06:20:38;;;;;;;1.40;0.20;;;;;;;;;;5057999;28;20033;-65
2023/12/30 06:23:04;;;;;;;2.72;0.40;;;;;;;;;;5070224;28;20408;-65
2023/12/30 06:25:29;;;;;;;1.92;0.45;;;;;;;;;;5067272;28;20032;-65
2023/12/30 06:27:54;;;;;;;1.57;0.50;;;;;;;;;;5068472;28;20055;-64
2023/12/30 06:30:19;;;;;;;1.33;0.30;;;;;;;;;;5058263;28;20024;-65
2023/12/30 06:32:44;;;;;;;1.50;0.30;;;;;;;;;;5068130;28;20056;-65
2023/12/30 06:35:09;;;;;;;1.40;0.30;;;;;;;;;;5070343;28;20024;-65
2023/12/30 06:37:35;;;;;;;1.27;0.30;;;;;;;;;;5070507;28;20381;-65
2023/12/30 06:40:00;;;;;;;0.80;0.30;;;;;;;;;;5067109;28;20029;-64
2023/12/30 06:42:25;;;;;;;2.03;0.27;;;;;;;;;;5065931;28;20013;-64
2023/12/30 06:44:50;;;;;;;1.48;0.32;;;;;;;;;;5070423;28;20074;-64
2023/12/30 06:47:15;;;;;;;0.85;0.30;;;;;;;;;;5060000;28;20025;-64
2023/12/30 06:49:40;;;;;;;2.07;0.67;;;;;;;;;;5055601;28;20955;-65
2023/12/30 06:52:06;;;;;;;1.17;0.33;;;;;;;;;;5054987;28;20036;-67
2023/12/30 06:54:31;;;;;;;0.98;0.32;;;;;;;;;;5049340;28;20017;-65
2023/12/30 06:56:56;;;;;;;3.50;0.50;;;;;;;;;;5057210;28;20115;-65
2023/12/30 06:59:22;;;;;;;1.60;0.40;;;;;;;;;;5056646;28;20382;-65
2023/12/30 07:01:47;;;;;;;1.27;0.40;;;;;;;;;;5058104;28;20127;-65
2023/12/30 07:04:13;;;;;;;2.40;0.50;;;;;;;;;;5064894;28;20059;-64
2023/12/30 07:06:38;;;;;;;1.67;0.30;;;;;;;;;;5056859;28;20017;-65
2023/12/30 07:09:03;;;;;;;1.85;0.30;;;;;;;;;;5052491;28;20472;-63
2023/12/30 07:11:29;;;;;;;1.73;0.50;;;;;;;;;;5065836;28;20036;-65
2023/12/30 07:13:54;;;;;;;2.58;0.40;;;;;;;;;;5065383;28;20032;-63
2023/12/30 07:16:19;;;;;;;2.23;0.57;;;;;;;;;;5060154;28;20036;-64
2023/12/30 07:18:44;;;;;;;2.97;0.40;;;;;;;;;;5057640;28;20465;-67
2023/12/30 07:21:09;;;;;;;1.93;0.40;;;;;;;;;;5052316;28;20021;-64
2023/12/30 07:23:35;;;;;;;1.40;0.40;;;;;;;;;;5063891;28;20381;-64
2023/12/30 07:26:00;;;;;;;1.60;0.40;;;;;;;;;;5063097;28;20012;-64
2023/12/30 07:28:25;;;;;;;2.40;0.40;;;;;;;;;;5066506;28;20098;-65
2023/12/30 07:30:50;;;;;;;1.17;0.30;;;;;;;;;;5061803;28;20021;-65
2023/12/30 07:33:15;;;;;;;3.20;0.50;;;;;;;;;;5068532;28;20059;-65
2023/12/30 07:35:40;;;;;;;2.88;0.35;;;;;;;;;;5064381;28;20021;-65
2023/12/30 07:38:06;;;;;;;4.20;0.40;;;;;;;;;;5051389;28;20120;-64
2023/12/30 07:40:31;;;;;;;3.20;0.33;;;;;;;;;;5058522;28;20103;-64
2023/12/30 07:42:56;;;;;;;2.28;0.40;;;;;;;;;;5057762;28;20111;-64
2023/12/30 07:45:21;;;;;;;4.32;0.43;;;;;;;;;;5059239;28;20062;-64
2023/12/30 07:47:46;;;;;;;3.05;0.50;;;;;;;;;;5058940;28;20480;-65
2023/12/30 07:50:11;;;;;;;1.48;0.32;;;;;;;;;;5068302;28;20033;-64
2023/12/30 07:52:36;;;;;;;1.90;0.40;;;;;;;;;;5074655;28;20094;-65
2023/12/30 07:55:02;;;;;;;2.50;0.43;;;;;;;;;;5077175;28;20383;-64
2023/12/30 07:57:27;;;;;;;1.23;0.30;;;;;;;;;;5074850;28;20038;-63
2023/12/30 07:59:52;;;;;;;3.22;0.50;;;;;;;;;;5072654;28;20423;-64
2023/12/30 08:02:17;;;;;;;3.67;0.90;;;;;;;;;;5068383;28;20310;-64
2023/12/30 08:04:46;;;;;;;2.77;0.50;;;;;;;;;;5070284;28;20017;-65
2023/12/30 08:07:11;;;;;;;1.55;0.40;;;;;;;;;;5063484;28;20095;-64
2023/12/30 08:09:37;;;;;;;1.45;0.32;;;;;;;;;;5062924;28;20520;-63
2023/12/30 08:12:02;;;;;;;1.83;0.38;;;;;;;;;;5061390;28;20032;-63
2023/12/30 08:14:28;;;;;;;2.72;0.50;;;;;;;;;;5072217;28;20103;-63
2023/12/30 08:16:53;;;;;;;0.85;0.30;;;;;;;;;;5065119;28;20025;-64
2023/12/30 08:19:18;;;;;;;1.63;0.50;;;;;;;;;;5071687;28;20020;-64
2023/12/30 08:21:44;;;;;;;2.53;0.40;;;;;;;;;;5069082;28;20016;-65
2023/12/30 08:24:10;;;;;;;3.00;0.63;;;;;;;;;;5064977;28;20024;-63
2023/12/30 08:26:35;;;;;;;2.08;0.30;;;;;;;;;;5066730;28;20017;-63
2023/12/30 08:29:00;;;;;;;3.17;0.60;;;;;;;;;;5062078;28;20073;-63
2023/12/30 08:31:25;;;;;;;3.05;0.47;;;;;;;;;;5063671;28;20036;-63
2023/12/30 08:33:51;;;;;;;1.70;0.40;;;;;;;;;;5059378;28;20040;-63
2023/12/30 08:36:16;;;;;;;1.67;0.47;;;;;;;;;;5066930;28;20123;-63
2023/12/30 08:38:42;;;;;;;2.67;0.55;;;;;;;;;;5060246;28;20127;-63
2023/12/30 08:41:14;;;;;;;2.92;0.70;;;;;;;;;;5072107;28;20048;-63
2023/12/30 08:43:39;;;;;;;2.40;0.60;;;;;;;;;;5072367;28;20036;-63
2023/12/30 08:46:04;;;;;;;2.97;0.60;;;;;;;;;;5062483;28;20074;-64
2023/12/30 08:48:29;;;;;;;3.63;0.50;;;;;;;;;;5073056;28;20032;-64
2023/12/30 08:50:55;;;;;;;3.33;0.60;;;;;;;;;;5071926;28;20376;-64
2023/12/30 08:53:24;;;;;;;3.07;0.67;;;;;;;;;;5072136;28;20035;-63
2023/12/30 08:55:50;;;;;;;3.35;0.65;;;;;;;;;;5069977;28;20024;-65
2023/12/30 08:58:15;;;;;;;2.67;0.50;;;;;;;;;;5064818;28;20025;-65
2023/12/30 09:00:41;;;;;;;3.15;0.60;;;;;;;;;;5071838;28;20057;-64
2023/12/30 09:03:06;;;;;;;2.70;0.60;;;;;;;;;;5056381;28;20436;-63
2023/12/30 09:05:32;;;;;;;3.95;0.63;;;;;;;;;;5072301;28;20070;-65
2023/12/30 09:07:57;;;;;;;4.20;0.60;;;;;;;;;;5070436;28;20403;-64
2023/12/30 09:10:22;;;;;;;3.65;0.70;;;;;;;;;;5068290;28;20034;-62
2023/12/30 09:12:47;;;;;;;2.60;0.70;;;;;;;;;;5070331;28;20054;-64
2023/12/30 09:15:13;;;;;;;2.50;0.60;;;;;;;;;;5072610;28;20484;-63
2023/12/30 09:17:38;;;;;;;4.38;0.65;;;;;;;;;;5071672;28;20021;-63
2023/12/30 09:20:03;;;;;;;3.15;0.57;;;;;;;;;;5064686;28;20052;-63
2023/12/30 09:22:29;;;;;;;3.05;0.60;;;;;;;;;;5070644;28;20052;-64
2023/12/30 09:24:54;;;;;;;2.17;0.40;;;;;;;;;;5071070;28;20550;-63
2023/12/30 09:27:19;;;;;;;3.60;0.50;;;;;;;;;;5071389;28;20025;-65
2023/12/30 09:29:44;;;;;;;3.10;0.45;;;;;;;;;;5064196;28;20046;-63
2023/12/30 09:32:09;;;;;;;2.67;0.57;;;;;;;;;;5066508;28;20024;-62
2023/12/30 09:34:35;;;;;;;2.05;0.40;;;;;;;;;;5072390;28;20032;-63
2023/12/30 09:37:00;;;;;;;4.28;0.55;;;;;;;;;;5071224;28;20503;-63
2023/12/30 09:39:26;;;;;;;3.10;0.75;;;;;;;;;;5070842;28;20020;-64
2023/12/30 09:41:51;;;;;;;3.67;0.70;;;;;;;;;;5069629;28;20408;-70
2023/12/30 09:44:17;;;;;;;3.90;0.50;;;;;;;;;;5071307;28;20040;-64
2023/12/30 09:46:43;;;;;;;3.58;0.60;;;;;;;;;;5063436;28;20081;-64
2023/12/30 09:49:08;;;;;;;3.15;0.55;;;;;;;;;;5067330;28;20021;-63
2023/12/30 09:51:34;;;;;;;2.58;0.52;;;;;;;;;;5065295;28;20162;-63
2023/12/30 09:53:59;;;;;;;4.57;0.70;;;;;;;;;;5070704;28;20017;-63
2023/12/30 09:56:25;;;;;;;2.88;0.43;;;;;;;;;;5070995;28;20032;-63
2023/12/30 09:58:52;;;;;;;2.25;0.45;;;;;;;;;;5071212;28;20031;-63
2023/12/30 10:01:17;;;;;;;4.07;0.52;;;;;;;;;;5063501;28;20029;-64
2023/12/30 10:03:43;;;;;;;1.75;0.43;;;;;;;;;;5064199;28;20050;-63
2023/12/30 10:06:11;;;;;;;3.80;0.50;;;;;;;;;;5071231;28;20472;-63
2023/12/30 10:08:37;;;;;;;5.43;0.80;;;;;;;;;;5068132;28;20043;-64
2023/12/30 10:11:06;;;;;;;3.00;0.60;;;;;;;;;;5069078;28;20024;-62
2023/12/30 10:13:31;;;;;;;2.40;0.50;;;;;;;;;;5068814;28;20021;-63
2023/12/30 10:15:58;;;;;;;3.45;0.60;;;;;;;;;;5070288;28;20489;-60
2023/12/30 10:18:24;;;;;;;3.15;0.55;;;;;;;;;;5070956;28;20101;-60
2023/12/30 10:20:49;;;;;;;1.65;0.43;;;;;;;;;;5069845;28;20112;-62
2023/12/30 10:23:14;;;;;;;2.73;0.63;;;;;;;;;;5069886;28;20404;-59
2023/12/30 10:25:39;;;;;;;3.73;0.60;;;;;;;;;;5066671;28;20027;-63
2023/12/30 10:28:05;;;;;;;3.45;0.60;;;;;;;;;;5067464;28;20105;-61
2023/12/30 10:30:30;;;;;;;3.45;0.90;;;;;;;;;;5063306;28;20473;-61
2023/12/30 10:33:05;;;;;;;3.53;0.60;;;;;;;;;;5067209;28;20090;-61
2023/12/30 10:35:30;;;;;;;6.03;0.75;;;;;;;;;;5069829;28;20025;-61
2023/12/30 10:37:56;;;;;;;2.45;0.60;;;;;;;;;;5068890;28;20032;-60
2023/12/30 10:40:22;;;;;;;5.10;0.70;;;;;;;;;;5067163;28;20029;-61
2023/12/30 10:42:47;;;;;;;2.33;0.60;;;;;;;;;;5072404;28;20794;-59
2023/12/30 10:45:12;;;;;;;3.67;0.70;;;;;;;;;;5068131;28;20464;-62
2023/12/30 10:47:42;;;;;;;3.17;0.50;;;;;;;;;;5072428;28;20024;-61
2023/12/30 10:50:09;;;;;;;3.67;0.60;;;;;;;;;;5068166;28;20564;-62
2023/12/30 10:52:35;;;;;;;4.47;0.70;;;;;;;;;;5069708;28;20040;-61
2023/12/30 10:55:10;;;;;;;2.33;0.55;;;;;;;;;;5064176;28;20139;-62
2023/12/30 10:57:37;;;;;;;3.00;0.40;;;;;;;;;;5070543;28;20025;-61
2023/12/30 11:00:08;;;;;;;;;;;;;;;;;;5071559;28;20100;-63
2023/12/30 11:02:34;;;;;;;3.22;0.70;;;;;;;;;;5064790;28;19963;-63
2023/12/30 11:05:01;;;;;;;3.35;0.57;;;;;;;;;;5064333;28;20029;-63
2023/12/30 11:07:27;;;;;;;2.47;0.63;;;;;;;;;;5060396;28;20096;-61
2023/12/30 11:09:52;;;;;;;3.22;0.60;;;;;;;;;;5059556;28;20447;-63
2023/12/30 11:12:18;;;;;;;3.30;0.50;;;;;;;;;;5068982;28;20093;-62
2023/12/30 11:14:43;;;;;;;6.53;0.80;;;;;;;;;;5071084;28;20357;-62
2023/12/30 11:17:08;;;;;;;3.45;0.73;;;;;;;;;;5074663;28;20376;-62
2023/12/30 11:19:35;;;;;;;3.17;0.30;;;;;;;;;;5067534;28;20033;-62
2023/12/30 11:22:02;;;;;;;2.50;0.30;;;;;;;;;;5063247;28;20024;-63
2023/12/30 11:24:27;;;;;;;2.08;0.43;;;;;;;;;;5068961;28;20590;-62
2023/12/30 11:26:53;;;;;;;1.87;0.30;;;;;;;;;;5067103;28;20327;-62
2023/12/30 11:29:28;;;;;;;1.65;0.30;;;;;;;;;;5059396;28;20032;-63
2023/12/30 11:31:57;;;;;;;1.73;0.30;;;;;;;;;;5073276;28;20029;-62
2023/12/30 11:34:24;;;;;;;1.75;0.30;;;;;;;;;;5063088;28;20124;-63
2023/12/30 11:36:52;;;;;;;2.28;0.30;;;;;;;;;;5073130;28;20020;-62
2023/12/30 11:39:22;;;;;;;1.25;0.43;;;;;;;;;;5069351;28;20028;-63
2023/12/30 11:41:48;;;;;;;1.45;0.30;;;;;;;;;;5064177;28;20064;-62
2023/12/30 11:44:14;;;;;;;3.00;0.45;;;;;;;;;;5070094;28;20025;-63
2023/12/30 11:46:40;;;;;;;1.38;0.30;;;;;;;;;;5070176;28;20028;-61
2023/12/30 11:49:06;;;;;;;3.50;0.88;;;;;;;;;;5061919;28;20389;-62
2023/12/30 11:51:31;;;;;;;1.70;0.40;;;;;;;;;;5066810;28;20028;-62
2023/12/30 11:54:00;;;;;;;1.42;0.30;;;;;;;;;;5073724;28;20031;-60
2023/12/30 11:56:25;;;;;;;3.33;0.50;;;;;;;;;;5063698;28;20370;-63
2023/12/30 11:58:51;;;;;;;1.85;0.47;;;;;;;;;;5053723;28;20118;-62
2023/12/30 12:01:19;;;;;;;3.10;0.35;;;;;;;;;;5057934;28;20023;-62
2023/12/30 12:03:44;;;;;;;2.63;0.50;;;;;;;;;;5071122;28;20380;-63
2023/12/30 12:06:10;;;;;;;2.37;0.30;;;;;;;;;;5073641;28;20025;-64
2023/12/30 12:08:35;;;;;;;3.10;0.40;;;;;;;;;;5068281;28;20112;-62
2023/12/30 12:11:00;;;;;;;2.53;0.40;;;;;;;;;;5065124;28;20016;-62
2023/12/30 12:13:26;;;;;;;2.35;0.40;;;;;;;;;;5066048;28;20024;-62
2023/12/30 12:15:52;;;;;;;2.40;0.30;;;;;;;;;;5070699;28;20024;-62
2023/12/30 12:18:17;;;;;;;2.40;0.47;;;;;;;;;;5063546;28;20169;-61
2023/12/30 12:20:43;;;;;;;1.25;0.40;;;;;;;;;;5068174;28;20024;-62
2023/12/30 12:23:08;;;;;;;3.60;0.60;;;;;;;;;;5068361;28;20029;-61
2023/12/30 12:25:34;;;;;;;2.03;0.40;;;;;;;;;;5066331;28;20097;-61
2023/12/30 12:27:59;;;;;;;2.37;0.50;;;;;;;;;;5065681;28;20055;-61
2023/12/30 12:30:24;;;;;;;4.10;0.50;;;;;;;;;;5070071;28;20098;-60
2023/12/30 12:32:49;;;;;;;1.07;0.33;;;;;;;;;;5069098;28;20071;-60
2023/12/30 12:35:14;;;;;;;2.80;0.50;;;;;;;;;;5072017;28;20044;-59
2023/12/30 12:37:39;;;;;;;1.80;0.30;;;;;;;;;;5070420;28;20107;-60
2023/12/30 12:40:10;;;;;;;6.50;0.73;;;;;;;;;;5062930;28;20055;-60
2023/12/30 12:42:35;;;;;;;2.40;0.40;;;;;;;;;;5069775;28;20028;-61
2023/12/30 12:45:00;;;;;;;1.52;0.57;;;;;;;;;;5072679;28;20029;-59
2023/12/30 12:47:25;;;;;;;3.93;0.70;;;;;;;;;;5071070;28;20067;-60
2023/12/30 12:49:51;;;;;;;3.67;0.55;;;;;;;;;;5070865;28;20025;-59
2023/12/30 12:52:16;;;;;;;2.03;0.50;;;;;;;;;;5068142;28;20105;-60
2023/12/30 12:54:43;;;;;;;2.38;0.50;;;;;;;;;;5057157;28;20348;-60
2023/12/30 12:57:08;;;;;;;2.13;0.60;;;;;;;;;;5066110;28;20384;-60
2023/12/30 12:59:33;;;;;;;1.25;0.40;;;;;;;;;;5057446;28;20028;-60
2023/12/30 13:01:59;;;;;;;3.33;0.50;;;;;;;;;;5060312;28;20021;-60
2023/12/30 13:04:24;;;;;;;3.07;0.60;;;;;;;;;;5069076;28;20028;-59
2023/12/30 13:06:50;;;;;;;2.92;0.60;;;;;;;;;;5067732;28;20031;-60
2023/12/30 13:11:56;;;;;;;2.45;0.60;;;;;;;;;;5059237;28;20253;-60
2023/12/30 13:14:26;;;;;;;3.33;0.70;;;;;;;;;;5066540;28;20016;-60
2023/12/30 13:16:51;;;;;;;3.25;0.70;;;;;;;;;;5061152;28;20017;-59
2023/12/30 13:19:16;;;;;;;2.38;0.60;;;;;;;;;;5060742;28;20029;-60
2023/12/30 13:21:42;;;;;;;3.45;0.80;;;;;;;;;;5069952;28;20021;-59
2023/12/30 13:24:07;;;;;;;3.55;0.77;;;;;;;;;;5063263;28;20036;-58
2023/12/30 13:26:32;;;;;;;1.97;0.60;;;;;;;;;;5065903;28;20076;-60
2023/12/30 13:28:57;;;;;;;1.80;0.50;;;;;;;;;;5067550;28;20064;-61
2023/12/30 13:31:25;;;;;;;3.07;0.70;;;;;;;;;;5068617;28;20097;-61
2023/12/30 13:33:53;;;;;;;1.50;0.47;;;;;;;;;;5068377;28;20017;-60
2023/12/30 13:36:18;;;;;;;2.75;0.50;;;;;;;;;;5068957;28;20025;-58
2023/12/30 13:38:50;;;;;;;4.47;0.60;;;;;;;;;;5069116;28;20032;-59
2023/12/30 13:41:16;;;;;;;2.97;0.60;;;;;;;;;;5057467;28;20025;-59
2023/12/30 13:43:43;;;;;;;4.38;0.88;;;;;;;;;;5070315;28;20027;-60
2023/12/30 13:46:32;;;;;;;2.85;0.60;;;;;;;;;;5063436;28;20378;-59
2023/12/30 13:51:37;;;;;;;3.72;0.70;;;;;;;;;;5071076;28;20057;-58
2023/12/30 13:54:02;;;;;;;3.22;0.70;;;;;;;;;;5069053;28;20028;-59
2023/12/30 13:56:28;;;;;;;2.60;0.75;;;;;;;;;;5071297;28;20020;-59
2023/12/30 13:58:57;;;;;;;1.90;0.60;;;;;;;;;;5058248;28;20524;-59
2023/12/30 14:01:23;;;;;;;3.42;0.80;;;;;;;;;;5066220;28;20234;-59
2023/12/30 14:03:48;;;;;;;3.17;0.70;;;;;;;;;;5060272;28;20558;-59
2023/12/30 14:06:17;;;;;;;2.73;0.50;;;;;;;;;;5068725;28;20016;-60
2023/12/30 14:08:42;;;;;;;4.03;0.77;;;;;;;;;;5063585;28;20038;-58
2023/12/30 14:11:20;;;;;;;4.43;0.97;;;;;;;;;;5061351;28;20031;-59
2023/12/30 14:13:47;;;;;;;5.30;0.75;;;;;;;;;;5054884;28;20060;-58
2023/12/30 14:16:13;;;;;;;4.07;0.68;;;;;;;;;;5060022;28;20176;-59
2023/12/30 14:18:38;;;;;;;5.45;0.80;;;;;;;;;;5054995;28;20024;-59
2023/12/30 14:21:03;;;;;;;3.30;0.70;;;;;;;;;;5061154;28;20443;-59
2023/12/30 14:23:30;;;;;;;5.07;0.80;;;;;;;;;;5062006;28;20028;-59
2023/12/30 14:25:55;;;;;;;3.35;0.70;;;;;;;;;;5058854;28;20028;-58
2023/12/30 14:28:21;;;;;;;4.63;0.77;;;;;;;;;;5065061;28;20078;-58
2023/12/30 14:30:46;;;;;;;5.05;0.88;;;;;;;;;;5064196;28;20032;-59
2023/12/30 14:33:11;;;;;;;5.10;0.90;;;;;;;;;;5066356;28;20036;-59
2023/12/30 14:35:36;;;;;;;4.47;0.90;;;;;;;;;;5062490;28;20106;-59
2023/12/30 14:38:04;;;;;;;3.72;0.90;;;;;;;;;;5059923;28;20536;-58